sensor_id;sensor_type;location;lat;lon;timestamp;P1;durP1;ratioP1;P2;durP2;ratioP2
60436;SDS011;46289;51.992;4.498;2023-02-28T00:00:09;6.03;;;3.35;;
60436;SDS011;46289;51.992;4.498;2023-02-28T00:02:16;7.78;;;3.58;;
60436;SDS011;46289;51.992;4.498;2023-02-28T00:04:21;8.88;;;3.97;;
60436;SDS011;46289;51.992;4.498;2023-02-28T00:06:26;6.30;;;3.45;;
60436;SDS011;46289;51.992;4.498;2023-02-28T00:08:32;8.93;;;3.88;;
60436;SDS011;46289;51.992;4.498;2023-02-28T00:10:38;7.57;;;3.72;;
60436;SDS011;46289;51.992;4.498;2023-02-28T00:12:42;6.78;;;3.40;;
60436;SDS011;46289;51.992;4.498;2023-02-28T00:14:50;7.03;;;3.85;;
60436;SDS011;46289;51.992;4.498;2023-02-28T00:16:55;8.55;;;4.38;;
60436;SDS011;46289;51.992;4.498;2023-02-28T00:18:59;8.52;;;3.92;;
60436;SDS011;46289;51.992;4.498;2023-02-28T00:21:04;7.07;;;3.58;;
60436;SDS011;46289;51.992;4.498;2023-02-28T00:23:10;9.45;;;4.22;;
60436;SDS011;46289;51.992;4.498;2023-02-28T00:25:15;9.45;;;3.78;;
60436;SDS011;46289;51.992;4.498;2023-02-28T00:27:22;7.35;;;3.40;;
60436;SDS011;46289;51.992;4.498;2023-02-28T00:29:27;8.30;;;3.92;;
60436;SDS011;46289;51.992;4.498;2023-02-28T00:31:34;6.05;;;3.40;;
60436;SDS011;46289;51.992;4.498;2023-02-28T00:33:39;6.90;;;3.55;;
60436;SDS011;46289;51.992;4.498;2023-02-28T00:35:44;7.80;;;3.55;;
60436;SDS011;46289;51.992;4.498;2023-02-28T00:37:50;5.60;;;3.40;;
60436;SDS011;46289;51.992;4.498;2023-02-28T00:39:54;7.93;;;4.18;;
60436;SDS011;46289;51.992;4.498;2023-02-28T00:41:59;9.55;;;3.90;;
60436;SDS011;46289;51.992;4.498;2023-02-28T00:44:04;8.45;;;3.80;;
60436;SDS011;46289;51.992;4.498;2023-02-28T00:46:09;8.30;;;3.20;;
60436;SDS011;46289;51.992;4.498;2023-02-28T00:48:16;8.00;;;3.60;;
60436;SDS011;46289;51.992;4.498;2023-02-28T00:50:21;6.18;;;3.25;;
60436;SDS011;46289;51.992;4.498;2023-02-28T00:52:26;8.10;;;3.25;;
60436;SDS011;46289;51.992;4.498;2023-02-28T00:54:31;11.07;;;3.97;;
60436;SDS011;46289;51.992;4.498;2023-02-28T00:56:35;7.18;;;3.50;;
60436;SDS011;46289;51.992;4.498;2023-02-28T00:58:40;9.05;;;3.40;;
60436;SDS011;46289;51.992;4.498;2023-02-28T01:00:45;7.88;;;3.45;;
60436;SDS011;46289;51.992;4.498;2023-02-28T01:02:50;7.75;;;3.40;;
60436;SDS011;46289;51.992;4.498;2023-02-28T01:05:00;8.40;;;3.33;;
60436;SDS011;46289;51.992;4.498;2023-02-28T01:07:05;7.03;;;3.53;;
60436;SDS011;46289;51.992;4.498;2023-02-28T01:09:11;9.82;;;3.78;;
60436;SDS011;46289;51.992;4.498;2023-02-28T01:11:16;9.00;;;4.18;;
60436;SDS011;46289;51.992;4.498;2023-02-28T01:13:22;7.65;;;3.53;;
60436;SDS011;46289;51.992;4.498;2023-02-28T01:15:27;8.88;;;3.53;;
60436;SDS011;46289;51.992;4.498;2023-02-28T01:17:33;9.75;;;4.07;;
60436;SDS011;46289;51.992;4.498;2023-02-28T01:19:37;10.13;;;4.65;;
60436;SDS011;46289;51.992;4.498;2023-02-28T01:21:45;9.38;;;3.88;;
60436;SDS011;46289;51.992;4.498;2023-02-28T01:23:50;8.73;;;4.03;;
60436;SDS011;46289;51.992;4.498;2023-02-28T01:25:54;9.25;;;4.35;;
60436;SDS011;46289;51.992;4.498;2023-02-28T01:27:59;10.98;;;4.25;;
60436;SDS011;46289;51.992;4.498;2023-02-28T01:30:05;9.55;;;4.47;;
60436;SDS011;46289;51.992;4.498;2023-02-28T01:32:11;8.43;;;3.85;;
60436;SDS011;46289;51.992;4.498;2023-02-28T01:34:16;8.80;;;4.72;;
60436;SDS011;46289;51.992;4.498;2023-02-28T01:36:22;7.95;;;3.72;;
60436;SDS011;46289;51.992;4.498;2023-02-28T01:38:30;10.90;;;4.93;;
60436;SDS011;46289;51.992;4.498;2023-02-28T01:40:35;9.10;;;3.90;;
60436;SDS011;46289;51.992;4.498;2023-02-28T01:42:40;8.63;;;4.35;;
60436;SDS011;46289;51.992;4.498;2023-02-28T01:44:59;12.93;;;4.50;;
60436;SDS011;46289;51.992;4.498;2023-02-28T01:47:07;9.70;;;4.15;;
60436;SDS011;46289;51.992;4.498;2023-02-28T01:49:12;9.90;;;4.38;;
60436;SDS011;46289;51.992;4.498;2023-02-28T01:51:22;9.95;;;4.38;;
60436;SDS011;46289;51.992;4.498;2023-02-28T01:53:36;10.55;;;4.00;;
60436;SDS011;46289;51.992;4.498;2023-02-28T01:55:45;10.13;;;4.32;;
60436;SDS011;46289;51.992;4.498;2023-02-28T01:57:55;12.70;;;4.55;;
60436;SDS011;46289;51.992;4.498;2023-02-28T02:00:03;9.00;;;3.90;;
60436;SDS011;46289;51.992;4.498;2023-02-28T02:02:14;9.55;;;5.20;;
60436;SDS011;46289;51.992;4.498;2023-02-28T02:04:21;11.18;;;4.45;;
60436;SDS011;46289;51.992;4.498;2023-02-28T02:06:30;10.85;;;4.70;;
60436;SDS011;46289;51.992;4.498;2023-02-28T02:08:43;14.65;;;5.35;;
60436;SDS011;46289;51.992;4.498;2023-02-28T02:10:49;8.45;;;4.00;;
60436;SDS011;46289;51.992;4.498;2023-02-28T02:13:00;12.82;;;4.97;;
60436;SDS011;46289;51.992;4.498;2023-02-28T02:15:16;9.52;;;4.68;;
60436;SDS011;46289;51.992;4.498;2023-02-28T02:17:27;11.23;;;5.20;;
60436;SDS011;46289;51.992;4.498;2023-02-28T02:19:46;9.23;;;4.47;;
60436;SDS011;46289;51.992;4.498;2023-02-28T02:22:28;10.50;;;5.88;;
60436;SDS011;46289;51.992;4.498;2023-02-28T02:25:04;9.05;;;5.38;;
60436;SDS011;46289;51.992;4.498;2023-02-28T02:27:25;13.23;;;5.70;;
60436;SDS011;46289;51.992;4.498;2023-02-28T02:32:32;10.95;;;6.65;;
60436;SDS011;46289;51.992;4.498;2023-02-28T02:34:57;15.35;;;6.55;;
60436;SDS011;46289;51.992;4.498;2023-02-28T02:39:36;13.63;;;7.13;;
60436;SDS011;46289;51.992;4.498;2023-02-28T02:41:50;16.02;;;7.47;;
60436;SDS011;46289;51.992;4.498;2023-02-28T02:43:58;13.10;;;7.72;;
60436;SDS011;46289;51.992;4.498;2023-02-28T02:46:09;12.23;;;6.43;;
60436;SDS011;46289;51.992;4.498;2023-02-28T02:48:19;17.20;;;6.88;;
60436;SDS011;46289;51.992;4.498;2023-02-28T02:50:33;12.32;;;6.35;;
60436;SDS011;46289;51.992;4.498;2023-02-28T02:52:42;16.77;;;6.63;;
60436;SDS011;46289;51.992;4.498;2023-02-28T02:54:55;15.73;;;7.15;;
60436;SDS011;46289;51.992;4.498;2023-02-28T02:57:03;15.13;;;6.80;;
60436;SDS011;46289;51.992;4.498;2023-02-28T02:59:12;14.02;;;7.55;;
60436;SDS011;46289;51.992;4.498;2023-02-28T03:01:23;17.20;;;6.90;;
60436;SDS011;46289;51.992;4.498;2023-02-28T03:03:32;13.82;;;6.70;;
60436;SDS011;46289;51.992;4.498;2023-02-28T03:05:42;13.48;;;7.28;;
60436;SDS011;46289;51.992;4.498;2023-02-28T03:07:51;14.70;;;7.70;;
60436;SDS011;46289;51.992;4.498;2023-02-28T03:09:56;11.98;;;6.68;;
60436;SDS011;46289;51.992;4.498;2023-02-28T03:12:03;14.48;;;7.53;;
60436;SDS011;46289;51.992;4.498;2023-02-28T03:14:14;17.48;;;6.72;;
60436;SDS011;46289;51.992;4.498;2023-02-28T03:16:34;14.40;;;6.32;;
60436;SDS011;46289;51.992;4.498;2023-02-28T03:18:43;13.20;;;7.65;;
60436;SDS011;46289;51.992;4.498;2023-02-28T03:21:03;14.50;;;7.30;;
60436;SDS011;46289;51.992;4.498;2023-02-28T03:23:19;12.70;;;7.22;;
60436;SDS011;46289;51.992;4.498;2023-02-28T03:25:29;15.88;;;7.75;;
60436;SDS011;46289;51.992;4.498;2023-02-28T03:27:42;16.48;;;7.88;;
60436;SDS011;46289;51.992;4.498;2023-02-28T03:29:58;17.90;;;7.85;;
60436;SDS011;46289;51.992;4.498;2023-02-28T03:32:05;17.75;;;7.20;;
60436;SDS011;46289;51.992;4.498;2023-02-28T03:34:19;11.55;;;6.65;;
60436;SDS011;46289;51.992;4.498;2023-02-28T03:36:32;13.40;;;7.38;;
60436;SDS011;46289;51.992;4.498;2023-02-28T03:38:46;18.85;;;8.05;;
60436;SDS011;46289;51.992;4.498;2023-02-28T03:40:57;14.40;;;8.18;;
60436;SDS011;46289;51.992;4.498;2023-02-28T03:43:08;18.57;;;8.70;;
60436;SDS011;46289;51.992;4.498;2023-02-28T03:45:17;18.70;;;9.32;;
60436;SDS011;46289;51.992;4.498;2023-02-28T03:47:26;24.20;;;9.70;;
60436;SDS011;46289;51.992;4.498;2023-02-28T03:49:36;16.55;;;8.88;;
60436;SDS011;46289;51.992;4.498;2023-02-28T03:51:49;21.73;;;9.43;;
60436;SDS011;46289;51.992;4.498;2023-02-28T03:53:57;17.83;;;9.13;;
60436;SDS011;46289;51.992;4.498;2023-02-28T03:56:07;14.93;;;8.68;;
60436;SDS011;46289;51.992;4.498;2023-02-28T03:58:20;21.88;;;10.10;;
60436;SDS011;46289;51.992;4.498;2023-02-28T04:00:31;17.52;;;9.23;;
60436;SDS011;46289;51.992;4.498;2023-02-28T04:02:40;22.38;;;8.93;;
60436;SDS011;46289;51.992;4.498;2023-02-28T04:04:44;19.58;;;9.85;;
60436;SDS011;46289;51.992;4.498;2023-02-28T04:06:52;16.58;;;10.05;;
60436;SDS011;46289;51.992;4.498;2023-02-28T04:09:06;15.63;;;8.70;;
60436;SDS011;46289;51.992;4.498;2023-02-28T04:11:14;14.80;;;9.40;;
60436;SDS011;46289;51.992;4.498;2023-02-28T04:13:24;25.35;;;9.25;;
60436;SDS011;46289;51.992;4.498;2023-02-28T04:15:30;18.33;;;8.73;;
60436;SDS011;46289;51.992;4.498;2023-02-28T04:17:35;26.38;;;9.73;;
60436;SDS011;46289;51.992;4.498;2023-02-28T04:19:39;18.67;;;9.63;;
60436;SDS011;46289;51.992;4.498;2023-02-28T04:21:45;17.20;;;9.50;;
60436;SDS011;46289;51.992;4.498;2023-02-28T04:23:55;19.63;;;9.48;;
60436;SDS011;46289;51.992;4.498;2023-02-28T04:26:02;18.15;;;8.23;;
60436;SDS011;46289;51.992;4.498;2023-02-28T04:28:08;18.63;;;9.13;;
60436;SDS011;46289;51.992;4.498;2023-02-28T04:30:14;18.48;;;8.43;;
60436;SDS011;46289;51.992;4.498;2023-02-28T04:32:19;15.98;;;8.82;;
60436;SDS011;46289;51.992;4.498;2023-02-28T04:34:26;21.05;;;9.50;;
60436;SDS011;46289;51.992;4.498;2023-02-28T04:36:34;19.92;;;7.95;;
60436;SDS011;46289;51.992;4.498;2023-02-28T04:38:39;16.15;;;8.43;;
60436;SDS011;46289;51.992;4.498;2023-02-28T04:40:47;18.45;;;8.45;;
60436;SDS011;46289;51.992;4.498;2023-02-28T04:42:52;15.13;;;7.57;;
60436;SDS011;46289;51.992;4.498;2023-02-28T04:44:57;22.73;;;8.77;;
60436;SDS011;46289;51.992;4.498;2023-02-28T04:47:02;15.30;;;7.78;;
60436;SDS011;46289;51.992;4.498;2023-02-28T04:49:07;16.40;;;8.57;;
60436;SDS011;46289;51.992;4.498;2023-02-28T04:51:14;17.75;;;7.88;;
60436;SDS011;46289;51.992;4.498;2023-02-28T04:53:20;18.65;;;8.43;;
60436;SDS011;46289;51.992;4.498;2023-02-28T04:55:25;17.95;;;7.32;;
60436;SDS011;46289;51.992;4.498;2023-02-28T04:57:34;18.05;;;8.38;;
60436;SDS011;46289;51.992;4.498;2023-02-28T04:59:39;14.82;;;6.70;;
60436;SDS011;46289;51.992;4.498;2023-02-28T05:01:45;17.05;;;6.95;;
60436;SDS011;46289;51.992;4.498;2023-02-28T05:03:52;13.57;;;8.02;;
60436;SDS011;46289;51.992;4.498;2023-02-28T05:05:58;19.05;;;7.88;;
60436;SDS011;46289;51.992;4.498;2023-02-28T05:08:03;18.10;;;7.30;;
60436;SDS011;46289;51.992;4.498;2023-02-28T05:10:11;17.65;;;8.40;;
60436;SDS011;46289;51.992;4.498;2023-02-28T05:12:16;18.95;;;8.75;;
60436;SDS011;46289;51.992;4.498;2023-02-28T05:14:23;22.25;;;9.20;;
60436;SDS011;46289;51.992;4.498;2023-02-28T05:16:27;21.20;;;8.80;;
60436;SDS011;46289;51.992;4.498;2023-02-28T05:18:32;17.67;;;8.27;;
60436;SDS011;46289;51.992;4.498;2023-02-28T05:20:37;23.60;;;8.90;;
60436;SDS011;46289;51.992;4.498;2023-02-28T05:22:43;23.00;;;8.27;;
60436;SDS011;46289;51.992;4.498;2023-02-28T05:24:48;27.73;;;9.30;;
60436;SDS011;46289;51.992;4.498;2023-02-28T05:26:53;23.67;;;9.73;;
60436;SDS011;46289;51.992;4.498;2023-02-28T05:28:59;22.55;;;8.90;;
60436;SDS011;46289;51.992;4.498;2023-02-28T05:31:07;26.70;;;10.05;;
60436;SDS011;46289;51.992;4.498;2023-02-28T05:33:12;21.17;;;9.02;;
60436;SDS011;46289;51.992;4.498;2023-02-28T05:35:17;25.45;;;10.15;;
60436;SDS011;46289;51.992;4.498;2023-02-28T05:37:22;21.98;;;9.13;;
60436;SDS011;46289;51.992;4.498;2023-02-28T05:39:26;24.95;;;9.90;;
60436;SDS011;46289;51.992;4.498;2023-02-28T05:41:31;22.30;;;8.23;;
60436;SDS011;46289;51.992;4.498;2023-02-28T05:43:37;20.63;;;8.40;;
60436;SDS011;46289;51.992;4.498;2023-02-28T05:45:42;25.02;;;9.48;;
60436;SDS011;46289;51.992;4.498;2023-02-28T05:47:49;25.40;;;8.88;;
60436;SDS011;46289;51.992;4.498;2023-02-28T05:49:57;22.65;;;8.32;;
60436;SDS011;46289;51.992;4.498;2023-02-28T05:52:04;23.90;;;9.52;;
60436;SDS011;46289;51.992;4.498;2023-02-28T05:54:08;20.00;;;8.30;;
60436;SDS011;46289;51.992;4.498;2023-02-28T05:56:15;20.42;;;8.70;;
60436;SDS011;46289;51.992;4.498;2023-02-28T05:58:20;22.08;;;9.25;;
60436;SDS011;46289;51.992;4.498;2023-02-28T06:00:26;23.10;;;9.10;;
60436;SDS011;46289;51.992;4.498;2023-02-28T06:02:31;20.23;;;9.70;;
60436;SDS011;46289;51.992;4.498;2023-02-28T06:04:39;24.40;;;9.57;;
60436;SDS011;46289;51.992;4.498;2023-02-28T06:06:44;31.92;;;10.35;;
60436;SDS011;46289;51.992;4.498;2023-02-28T06:08:49;19.55;;;9.48;;
60436;SDS011;46289;51.992;4.498;2023-02-28T06:10:54;29.33;;;9.73;;
60436;SDS011;46289;51.992;4.498;2023-02-28T06:12:59;23.80;;;9.85;;
60436;SDS011;46289;51.992;4.498;2023-02-28T06:15:05;25.33;;;9.93;;
60436;SDS011;46289;51.992;4.498;2023-02-28T06:17:10;11.70;;;7.13;;
60436;SDS011;46289;51.992;4.498;2023-02-28T06:19:15;17.30;;;8.52;;
60436;SDS011;46289;51.992;4.498;2023-02-28T06:21:22;22.83;;;9.13;;
60436;SDS011;46289;51.992;4.498;2023-02-28T06:23:29;18.33;;;7.50;;
60436;SDS011;46289;51.992;4.498;2023-02-28T06:25:34;16.55;;;9.10;;
60436;SDS011;46289;51.992;4.498;2023-02-28T06:27:39;12.20;;;6.22;;
60436;SDS011;46289;51.992;4.498;2023-02-28T06:29:47;17.67;;;8.05;;
60436;SDS011;46289;51.992;4.498;2023-02-28T06:31:52;14.02;;;6.35;;
60436;SDS011;46289;51.992;4.498;2023-02-28T06:33:56;14.88;;;7.22;;
60436;SDS011;46289;51.992;4.498;2023-02-28T06:36:02;19.42;;;7.90;;
60436;SDS011;46289;51.992;4.498;2023-02-28T06:38:09;19.00;;;7.53;;
60436;SDS011;46289;51.992;4.498;2023-02-28T06:40:15;16.10;;;6.78;;
60436;SDS011;46289;51.992;4.498;2023-02-28T06:42:19;12.93;;;5.47;;
60436;SDS011;46289;51.992;4.498;2023-02-28T06:44:26;14.65;;;6.07;;
60436;SDS011;46289;51.992;4.498;2023-02-28T06:46:36;10.45;;;5.47;;
60436;SDS011;46289;51.992;4.498;2023-02-28T06:48:42;11.18;;;4.88;;
60436;SDS011;46289;51.992;4.498;2023-02-28T06:50:48;10.35;;;5.88;;
60436;SDS011;46289;51.992;4.498;2023-02-28T06:52:53;11.18;;;6.00;;
60436;SDS011;46289;51.992;4.498;2023-02-28T06:55:00;16.83;;;6.32;;
60436;SDS011;46289;51.992;4.498;2023-02-28T06:57:05;16.33;;;7.38;;
60436;SDS011;46289;51.992;4.498;2023-02-28T06:59:10;15.52;;;7.22;;
60436;SDS011;46289;51.992;4.498;2023-02-28T07:01:14;13.80;;;6.57;;
60436;SDS011;46289;51.992;4.498;2023-02-28T07:03:20;12.65;;;6.55;;
60436;SDS011;46289;51.992;4.498;2023-02-28T07:05:25;11.45;;;6.35;;
60436;SDS011;46289;51.992;4.498;2023-02-28T07:07:30;14.80;;;6.65;;
60436;SDS011;46289;51.992;4.498;2023-02-28T07:09:35;19.55;;;7.40;;
60436;SDS011;46289;51.992;4.498;2023-02-28T07:11:43;18.67;;;6.78;;
60436;SDS011;46289;51.992;4.498;2023-02-28T07:13:48;15.75;;;7.40;;
60436;SDS011;46289;51.992;4.498;2023-02-28T07:15:53;18.08;;;7.75;;
60436;SDS011;46289;51.992;4.498;2023-02-28T07:17:58;13.80;;;7.93;;
60436;SDS011;46289;51.992;4.498;2023-02-28T07:20:03;13.75;;;6.30;;
60436;SDS011;46289;51.992;4.498;2023-02-28T07:22:09;15.65;;;7.47;;
60436;SDS011;46289;51.992;4.498;2023-02-28T07:24:16;15.32;;;6.90;;
60436;SDS011;46289;51.992;4.498;2023-02-28T07:26:21;16.42;;;7.50;;
60436;SDS011;46289;51.992;4.498;2023-02-28T07:28:28;15.75;;;8.00;;
60436;SDS011;46289;51.992;4.498;2023-02-28T07:30:34;18.30;;;8.32;;
60436;SDS011;46289;51.992;4.498;2023-02-28T07:32:38;13.60;;;7.20;;
60436;SDS011;46289;51.992;4.498;2023-02-28T07:34:45;14.63;;;8.07;;
60436;SDS011;46289;51.992;4.498;2023-02-28T07:36:52;19.35;;;8.27;;
60436;SDS011;46289;51.992;4.498;2023-02-28T07:38:57;18.25;;;7.40;;
60436;SDS011;46289;51.992;4.498;2023-02-28T07:41:04;19.38;;;8.20;;
60436;SDS011;46289;51.992;4.498;2023-02-28T07:43:12;16.02;;;6.88;;
60436;SDS011;46289;51.992;4.498;2023-02-28T07:45:19;12.93;;;6.72;;
60436;SDS011;46289;51.992;4.498;2023-02-28T07:47:25;15.30;;;7.85;;
60436;SDS011;46289;51.992;4.498;2023-02-28T07:49:30;14.48;;;7.03;;
60436;SDS011;46289;51.992;4.498;2023-02-28T07:51:35;14.38;;;7.78;;
60436;SDS011;46289;51.992;4.498;2023-02-28T07:53:40;18.95;;;8.52;;
60436;SDS011;46289;51.992;4.498;2023-02-28T07:55:44;16.08;;;7.80;;
60436;SDS011;46289;51.992;4.498;2023-02-28T07:57:49;13.60;;;6.03;;
60436;SDS011;46289;51.992;4.498;2023-02-28T07:59:54;16.73;;;8.35;;
60436;SDS011;46289;51.992;4.498;2023-02-28T08:02:01;14.73;;;7.32;;
60436;SDS011;46289;51.992;4.498;2023-02-28T08:04:06;14.93;;;7.47;;
60436;SDS011;46289;51.992;4.498;2023-02-28T08:06:15;17.95;;;8.48;;
60436;SDS011;46289;51.992;4.498;2023-02-28T08:08:21;14.85;;;7.55;;
60436;SDS011;46289;51.992;4.498;2023-02-28T08:10:29;14.02;;;6.68;;
60436;SDS011;46289;51.992;4.498;2023-02-28T08:12:34;11.95;;;7.30;;
60436;SDS011;46289;51.992;4.498;2023-02-28T08:14:40;15.45;;;7.70;;
60436;SDS011;46289;51.992;4.498;2023-02-28T08:16:44;18.17;;;8.20;;
60436;SDS011;46289;51.992;4.498;2023-02-28T08:18:52;19.50;;;8.27;;
60436;SDS011;46289;51.992;4.498;2023-02-28T08:20:57;14.25;;;7.38;;
60436;SDS011;46289;51.992;4.498;2023-02-28T08:23:02;15.38;;;7.70;;
60436;SDS011;46289;51.992;4.498;2023-02-28T08:25:07;15.60;;;7.75;;
60436;SDS011;46289;51.992;4.498;2023-02-28T08:27:13;15.05;;;7.70;;
60436;SDS011;46289;51.992;4.498;2023-02-28T08:29:18;15.27;;;8.02;;
60436;SDS011;46289;51.992;4.498;2023-02-28T08:31:23;18.42;;;7.93;;
60436;SDS011;46289;51.992;4.498;2023-02-28T08:33:28;19.70;;;9.10;;
60436;SDS011;46289;51.992;4.498;2023-02-28T08:35:37;17.88;;;9.57;;
60436;SDS011;46289;51.992;4.498;2023-02-28T08:37:42;19.55;;;8.45;;
60436;SDS011;46289;51.992;4.498;2023-02-28T08:39:47;15.93;;;8.02;;
60436;SDS011;46289;51.992;4.498;2023-02-28T08:41:55;15.13;;;8.93;;
60436;SDS011;46289;51.992;4.498;2023-02-28T08:44:08;22.00;;;9.02;;
60436;SDS011;46289;51.992;4.498;2023-02-28T08:46:13;17.13;;;8.35;;
60436;SDS011;46289;51.992;4.498;2023-02-28T08:48:18;18.98;;;8.73;;
60436;SDS011;46289;51.992;4.498;2023-02-28T08:50:23;18.85;;;9.88;;
60436;SDS011;46289;51.992;4.498;2023-02-28T08:52:30;21.27;;;10.60;;
60436;SDS011;46289;51.992;4.498;2023-02-28T08:54:36;20.52;;;10.43;;
60436;SDS011;46289;51.992;4.498;2023-02-28T08:56:43;24.35;;;11.07;;
60436;SDS011;46289;51.992;4.498;2023-02-28T08:58:48;21.60;;;10.00;;
60436;SDS011;46289;51.992;4.498;2023-02-28T09:00:56;18.20;;;9.15;;
60436;SDS011;46289;51.992;4.498;2023-02-28T09:03:02;24.17;;;9.48;;
60436;SDS011;46289;51.992;4.498;2023-02-28T09:05:09;24.35;;;10.27;;
60436;SDS011;46289;51.992;4.498;2023-02-28T09:07:14;26.05;;;9.82;;
60436;SDS011;46289;51.992;4.498;2023-02-28T09:09:24;23.85;;;10.88;;
60436;SDS011;46289;51.992;4.498;2023-02-28T09:11:29;22.15;;;10.00;;
60436;SDS011;46289;51.992;4.498;2023-02-28T09:13:36;21.65;;;10.43;;
60436;SDS011;46289;51.992;4.498;2023-02-28T09:15:42;22.23;;;9.95;;
60436;SDS011;46289;51.992;4.498;2023-02-28T09:17:47;20.05;;;11.13;;
60436;SDS011;46289;51.992;4.498;2023-02-28T09:19:51;19.92;;;10.45;;
60436;SDS011;46289;51.992;4.498;2023-02-28T09:21:56;25.63;;;10.95;;
60436;SDS011;46289;51.992;4.498;2023-02-28T09:24:01;18.33;;;9.27;;
60436;SDS011;46289;51.992;4.498;2023-02-28T09:26:11;22.45;;;9.50;;
60436;SDS011;46289;51.992;4.498;2023-02-28T09:28:18;20.85;;;10.50;;
60436;SDS011;46289;51.992;4.498;2023-02-28T09:30:26;20.63;;;9.50;;
60436;SDS011;46289;51.992;4.498;2023-02-28T09:32:31;14.38;;;8.38;;
60436;SDS011;46289;51.992;4.498;2023-02-28T09:34:37;18.98;;;10.32;;
60436;SDS011;46289;51.992;4.498;2023-02-28T09:36:42;17.85;;;8.18;;
60436;SDS011;46289;51.992;4.498;2023-02-28T09:38:48;19.40;;;8.77;;
60436;SDS011;46289;51.992;4.498;2023-02-28T09:40:55;21.52;;;9.25;;
60436;SDS011;46289;51.992;4.498;2023-02-28T09:43:04;19.70;;;10.90;;
60436;SDS011;46289;51.992;4.498;2023-02-28T09:45:13;17.90;;;9.30;;
60436;SDS011;46289;51.992;4.498;2023-02-28T09:47:28;19.83;;;9.88;;
60436;SDS011;46289;51.992;4.498;2023-02-28T09:49:37;23.02;;;10.32;;
60436;SDS011;46289;51.992;4.498;2023-02-28T09:51:50;21.05;;;8.93;;
60436;SDS011;46289;51.992;4.498;2023-02-28T09:54:00;18.75;;;8.20;;
60436;SDS011;46289;51.992;4.498;2023-02-28T09:56:07;18.40;;;8.50;;
60436;SDS011;46289;51.992;4.498;2023-02-28T09:58:17;18.40;;;8.73;;
60436;SDS011;46289;51.992;4.498;2023-02-28T10:00:39;20.25;;;8.70;;
60436;SDS011;46289;51.992;4.498;2023-02-28T10:02:58;19.10;;;8.32;;
60436;SDS011;46289;51.992;4.498;2023-02-28T10:05:16;16.30;;;6.90;;
60436;SDS011;46289;51.992;4.498;2023-02-28T10:07:29;19.17;;;8.88;;
60436;SDS011;46289;51.992;4.498;2023-02-28T10:09:50;15.05;;;7.97;;
60436;SDS011;46289;51.992;4.498;2023-02-28T10:12:00;16.35;;;7.43;;
60436;SDS011;46289;51.992;4.498;2023-02-28T10:14:14;19.27;;;8.45;;
60436;SDS011;46289;51.992;4.498;2023-02-28T10:16:23;20.00;;;8.65;;
60436;SDS011;46289;51.992;4.498;2023-02-28T10:18:39;18.25;;;7.60;;
60436;SDS011;46289;51.992;4.498;2023-02-28T10:20:49;21.27;;;7.95;;
60436;SDS011;46289;51.992;4.498;2023-02-28T10:22:57;18.52;;;8.20;;
60436;SDS011;46289;51.992;4.498;2023-02-28T10:25:15;18.13;;;7.95;;
60436;SDS011;46289;51.992;4.498;2023-02-28T10:27:24;16.55;;;7.50;;
60436;SDS011;46289;51.992;4.498;2023-02-28T10:29:36;13.70;;;6.40;;
60436;SDS011;46289;51.992;4.498;2023-02-28T10:31:46;16.05;;;6.53;;
60436;SDS011;46289;51.992;4.498;2023-02-28T10:33:52;15.15;;;6.93;;
60436;SDS011;46289;51.992;4.498;2023-02-28T10:35:58;12.40;;;6.50;;
60436;SDS011;46289;51.992;4.498;2023-02-28T10:38:05;10.32;;;6.03;;
60436;SDS011;46289;51.992;4.498;2023-02-28T10:40:31;12.77;;;7.55;;
60436;SDS011;46289;51.992;4.498;2023-02-28T10:42:37;12.27;;;6.00;;
60436;SDS011;46289;51.992;4.498;2023-02-28T10:44:45;11.70;;;6.50;;
60436;SDS011;46289;51.992;4.498;2023-02-28T10:46:52;12.45;;;6.40;;
60436;SDS011;46289;51.992;4.498;2023-02-28T10:49:02;10.70;;;6.05;;
60436;SDS011;46289;51.992;4.498;2023-02-28T10:51:10;10.38;;;6.55;;
60436;SDS011;46289;51.992;4.498;2023-02-28T10:53:23;10.70;;;5.78;;
60436;SDS011;46289;51.992;4.498;2023-02-28T10:55:58;13.75;;;5.90;;
60436;SDS011;46289;51.992;4.498;2023-02-28T10:58:15;11.77;;;6.80;;
60436;SDS011;46289;51.992;4.498;2023-02-28T11:00:33;11.45;;;7.05;;
60436;SDS011;46289;51.992;4.498;2023-02-28T11:02:39;11.70;;;5.97;;
60436;SDS011;46289;51.992;4.498;2023-02-28T11:04:47;10.88;;;6.05;;
60436;SDS011;46289;51.992;4.498;2023-02-28T11:06:56;11.45;;;6.05;;
60436;SDS011;46289;51.992;4.498;2023-02-28T11:09:04;13.00;;;6.32;;
60436;SDS011;46289;51.992;4.498;2023-02-28T11:11:22;10.77;;;5.70;;
60436;SDS011;46289;51.992;4.498;2023-02-28T11:13:32;10.40;;;5.32;;
60436;SDS011;46289;51.992;4.498;2023-02-28T11:15:42;9.25;;;5.63;;
60436;SDS011;46289;51.992;4.498;2023-02-28T11:17:59;11.00;;;5.60;;
60436;SDS011;46289;51.992;4.498;2023-02-28T11:20:18;8.70;;;5.43;;
60436;SDS011;46289;51.992;4.498;2023-02-28T11:22:31;10.48;;;5.35;;
60436;SDS011;46289;51.992;4.498;2023-02-28T11:24:41;10.65;;;5.55;;
60436;SDS011;46289;51.992;4.498;2023-02-28T11:26:48;8.63;;;5.00;;
60436;SDS011;46289;51.992;4.498;2023-02-28T11:28:57;8.32;;;4.65;;
60436;SDS011;46289;51.992;4.498;2023-02-28T11:31:21;7.95;;;3.95;;
60436;SDS011;46289;51.992;4.498;2023-02-28T11:33:40;7.55;;;4.25;;
60436;SDS011;46289;51.992;4.498;2023-02-28T11:35:47;6.32;;;4.03;;
60436;SDS011;46289;51.992;4.498;2023-02-28T11:37:56;6.60;;;4.22;;
60436;SDS011;46289;51.992;4.498;2023-02-28T11:40:02;9.95;;;4.38;;
60436;SDS011;46289;51.992;4.498;2023-02-28T11:42:22;6.07;;;3.65;;
60436;SDS011;46289;51.992;4.498;2023-02-28T11:44:40;6.40;;;4.25;;
60436;SDS011;46289;51.992;4.498;2023-02-28T11:47:00;7.60;;;4.13;;
60436;SDS011;46289;51.992;4.498;2023-02-28T11:49:18;6.88;;;4.07;;
60436;SDS011;46289;51.992;4.498;2023-02-28T11:51:45;6.63;;;3.83;;
60436;SDS011;46289;51.992;4.498;2023-02-28T11:53:59;7.78;;;4.63;;
60436;SDS011;46289;51.992;4.498;2023-02-28T11:56:15;7.85;;;3.53;;
60436;SDS011;46289;51.992;4.498;2023-02-28T11:58:38;9.98;;;4.93;;
60436;SDS011;46289;51.992;4.498;2023-02-28T12:03:30;9.90;;;4.80;;
60436;SDS011;46289;51.992;4.498;2023-02-28T12:05:42;8.55;;;4.45;;
60436;SDS011;46289;51.992;4.498;2023-02-28T12:07:59;14.13;;;5.03;;
60436;SDS011;46289;51.992;4.498;2023-02-28T12:10:17;8.93;;;4.97;;
60436;SDS011;46289;51.992;4.498;2023-02-28T12:12:29;9.45;;;5.07;;
60436;SDS011;46289;51.992;4.498;2023-02-28T12:14:50;8.02;;;4.43;;
60436;SDS011;46289;51.992;4.498;2023-02-28T12:17:13;8.10;;;4.93;;
60436;SDS011;46289;51.992;4.498;2023-02-28T12:19:30;10.38;;;5.22;;
60436;SDS011;46289;51.992;4.498;2023-02-28T12:21:49;7.47;;;4.60;;
60436;SDS011;46289;51.992;4.498;2023-02-28T12:24:14;8.27;;;4.38;;
60436;SDS011;46289;51.992;4.498;2023-02-28T12:26:34;11.20;;;4.68;;
60436;SDS011;46289;51.992;4.498;2023-02-28T12:28:44;9.20;;;5.32;;
60436;SDS011;46289;51.992;4.498;2023-02-28T12:30:54;10.50;;;5.22;;
60436;SDS011;46289;51.992;4.498;2023-02-28T12:33:05;7.30;;;4.85;;
60436;SDS011;46289;51.992;4.498;2023-02-28T12:35:22;8.10;;;4.80;;
60436;SDS011;46289;51.992;4.498;2023-02-28T12:37:31;10.07;;;5.78;;
60436;SDS011;46289;51.992;4.498;2023-02-28T12:39:42;8.18;;;4.60;;
60436;SDS011;46289;51.992;4.498;2023-02-28T12:41:56;10.40;;;5.70;;
60436;SDS011;46289;51.992;4.498;2023-02-28T12:44:08;11.40;;;5.30;;
60436;SDS011;46289;51.992;4.498;2023-02-28T12:46:17;9.18;;;4.88;;
60436;SDS011;46289;51.992;4.498;2023-02-28T12:48:27;10.07;;;5.38;;
60436;SDS011;46289;51.992;4.498;2023-02-28T12:50:38;14.50;;;6.88;;
60436;SDS011;46289;51.992;4.498;2023-02-28T12:52:47;8.48;;;4.40;;